sensor_id;sensor_type;location;lat;lon;timestamp;temperature;humidity
32753;DHT22;19121;52.428;10.816;2023-01-23T00:02:25;18.20;41.70
32753;DHT22;19121;52.428;10.816;2023-01-23T00:04:51;18.20;41.70
32753;DHT22;19121;52.428;10.816;2023-01-23T00:07:16;18.20;41.70
32753;DHT22;19121;52.428;10.816;2023-01-23T00:09:42;18.20;41.70
32753;DHT22;19121;52.428;10.816;2023-01-23T00:12:07;18.20;41.70
32753;DHT22;19121;52.428;10.816;2023-01-23T00:14:33;18.20;41.70
32753;DHT22;19121;52.428;10.816;2023-01-23T00:16:58;18.20;41.70
32753;DHT22;19121;52.428;10.816;2023-01-23T00:19:23;18.20;41.70
32753;DHT22;19121;52.428;10.816;2023-01-23T00:21:49;18.10;41.70
32753;DHT22;19121;52.428;10.816;2023-01-23T00:24:14;18.20;41.70
32753;DHT22;19121;52.428;10.816;2023-01-23T00:26:40;18.20;41.70
32753;DHT22;19121;52.428;10.816;2023-01-23T00:29:05;18.10;41.70
32753;DHT22;19121;52.428;10.816;2023-01-23T00:31:33;18.10;41.70
32753;DHT22;19121;52.428;10.816;2023-01-23T00:34:00;18.10;41.70
32753;DHT22;19121;52.428;10.816;2023-01-23T00:36:29;18.10;41.70
32753;DHT22;19121;52.428;10.816;2023-01-23T00:38:55;18.20;41.70
32753;DHT22;19121;52.428;10.816;2023-01-23T00:41:21;18.10;41.70
32753;DHT22;19121;52.428;10.816;2023-01-23T00:43:46;18.10;41.70
32753;DHT22;19121;52.428;10.816;2023-01-23T00:46:12;18.10;41.70
32753;DHT22;19121;52.428;10.816;2023-01-23T00:48:38;18.10;41.70
32753;DHT22;19121;52.428;10.816;2023-01-23T00:51:03;18.10;41.70
32753;DHT22;19121;52.428;10.816;2023-01-23T00:53:29;18.10;41.70
32753;DHT22;19121;52.428;10.816;2023-01-23T00:55:54;18.10;41.70
32753;DHT22;19121;52.428;10.816;2023-01-23T00:58:20;18.10;41.70
32753;DHT22;19121;52.428;10.816;2023-01-23T01:00:45;18.10;41.70
32753;DHT22;19121;52.428;10.816;2023-01-23T01:03:11;18.10;41.70
32753;DHT22;19121;52.428;10.816;2023-01-23T01:05:36;18.10;41.70
32753;DHT22;19121;52.428;10.816;2023-01-23T01:08:04;18.10;41.80
32753;DHT22;19121;52.428;10.816;2023-01-23T01:10:30;18.10;41.70
32753;DHT22;19121;52.428;10.816;2023-01-23T01:12:57;18.10;41.70
32753;DHT22;19121;52.428;10.816;2023-01-23T01:15:23;18.10;41.70
32753;DHT22;19121;52.428;10.816;2023-01-23T01:17:49;18.10;41.70
32753;DHT22;19121;52.428;10.816;2023-01-23T01:20:14;18.10;41.70
32753;DHT22;19121;52.428;10.816;2023-01-23T01:22:40;18.10;41.70
32753;DHT22;19121;52.428;10.816;2023-01-23T01:25:05;18.10;41.80
32753;DHT22;19121;52.428;10.816;2023-01-23T01:27:31;18.10;41.80
32753;DHT22;19121;52.428;10.816;2023-01-23T01:29:56;18.10;41.80
32753;DHT22;19121;52.428;10.816;2023-01-23T01:32:22;18.10;41.80
32753;DHT22;19121;52.428;10.816;2023-01-23T01:34:47;18.10;41.80
32753;DHT22;19121;52.428;10.816;2023-01-23T01:37:13;18.10;41.80
32753;DHT22;19121;52.428;10.816;2023-01-23T01:39:38;18.10;41.80
32753;DHT22;19121;52.428;10.816;2023-01-23T01:42:03;18.10;41.80
32753;DHT22;19121;52.428;10.816;2023-01-23T01:44:46;18.10;41.80
32753;DHT22;19121;52.428;10.816;2023-01-23T01:47:13;18.00;41.70
32753;DHT22;19121;52.428;10.816;2023-01-23T01:49:40;18.00;41.80
32753;DHT22;19121;52.428;10.816;2023-01-23T01:52:06;18.00;42.10
32753;DHT22;19121;52.428;10.816;2023-01-23T01:54:43;18.00;41.80
32753;DHT22;19121;52.428;10.816;2023-01-23T01:57:14;18.00;41.80
32753;DHT22;19121;52.428;10.816;2023-01-23T01:59:45;18.00;41.70
32753;DHT22;19121;52.428;10.816;2023-01-23T02:02:11;18.00;41.80
32753;DHT22;19121;52.428;10.816;2023-01-23T02:04:40;18.00;41.80
32753;DHT22;19121;52.428;10.816;2023-01-23T02:07:07;18.00;41.80
32753;DHT22;19121;52.428;10.816;2023-01-23T02:09:35;18.00;41.80
32753;DHT22;19121;52.428;10.816;2023-01-23T02:12:01;18.00;41.80
32753;DHT22;19121;52.428;10.816;2023-01-23T02:14:27;18.00;41.80
32753;DHT22;19121;52.428;10.816;2023-01-23T02:16:52;18.00;41.80
32753;DHT22;19121;52.428;10.816;2023-01-23T02:19:41;18.00;42.40
32753;DHT22;19121;52.428;10.816;2023-01-23T02:22:12;18.00;41.80
32753;DHT22;19121;52.428;10.816;2023-01-23T02:24:47;18.00;41.80
32753;DHT22;19121;52.428;10.816;2023-01-23T02:27:16;18.00;41.80
32753;DHT22;19121;52.428;10.816;2023-01-23T02:29:43;18.00;41.90
32753;DHT22;19121;52.428;10.816;2023-01-23T02:32:09;18.00;41.80
32753;DHT22;19121;52.428;10.816;2023-01-23T02:34:35;18.00;41.80
32753;DHT22;19121;52.428;10.816;2023-01-23T02:37:01;18.00;41.80
32753;DHT22;19121;52.428;10.816;2023-01-23T02:39:28;18.00;41.90
32753;DHT22;19121;52.428;10.816;2023-01-23T02:41:53;18.00;41.80
32753;DHT22;19121;52.428;10.816;2023-01-23T02:44:24;18.00;41.80
32753;DHT22;19121;52.428;10.816;2023-01-23T02:46:51;18.00;41.80
32753;DHT22;19121;52.428;10.816;2023-01-23T02:49:17;18.00;41.80
32753;DHT22;19121;52.428;10.816;2023-01-23T02:51:44;18.00;41.80
32753;DHT22;19121;52.428;10.816;2023-01-23T02:54:09;18.00;41.80
32753;DHT22;19121;52.428;10.816;2023-01-23T02:56:35;18.00;41.90
32753;DHT22;19121;52.428;10.816;2023-01-23T02:59:00;18.00;41.90
32753;DHT22;19121;52.428;10.816;2023-01-23T03:01:44;18.00;41.90
32753;DHT22;19121;52.428;10.816;2023-01-23T03:04:10;18.00;41.90
32753;DHT22;19121;52.428;10.816;2023-01-23T03:06:36;18.00;41.90
32753;DHT22;19121;52.428;10.816;2023-01-23T03:09:06;18.00;41.90
32753;DHT22;19121;52.428;10.816;2023-01-23T03:11:33;17.90;41.80
32753;DHT22;19121;52.428;10.816;2023-01-23T03:13:58;18.00;41.80
32753;DHT22;19121;52.428;10.816;2023-01-23T03:16:24;18.00;41.80
32753;DHT22;19121;52.428;10.816;2023-01-23T03:18:49;18.00;41.90
32753;DHT22;19121;52.428;10.816;2023-01-23T03:21:15;18.00;41.70
32753;DHT22;19121;52.428;10.816;2023-01-23T03:23:40;18.10;41.70
32753;DHT22;19121;52.428;10.816;2023-01-23T03:26:09;18.10;41.70
32753;DHT22;19121;52.428;10.816;2023-01-23T03:28:34;18.10;41.60
32753;DHT22;19121;52.428;10.816;2023-01-23T03:31:18;18.10;41.60
32753;DHT22;19121;52.428;10.816;2023-01-23T03:33:44;18.10;41.60
32753;DHT22;19121;52.428;10.816;2023-01-23T03:36:10;18.20;41.60
32753;DHT22;19121;52.428;10.816;2023-01-23T03:38:35;18.20;41.60
32753;DHT22;19121;52.428;10.816;2023-01-23T03:41:01;18.20;41.50
32753;DHT22;19121;52.428;10.816;2023-01-23T03:43:46;18.20;41.50
32753;DHT22;19121;52.428;10.816;2023-01-23T03:46:11;18.20;41.50
32753;DHT22;19121;52.428;10.816;2023-01-23T03:48:37;18.20;41.50
32753;DHT22;19121;52.428;10.816;2023-01-23T03:51:02;18.30;41.50
32753;DHT22;19121;52.428;10.816;2023-01-23T03:53:27;18.20;41.40
32753;DHT22;19121;52.428;10.816;2023-01-23T03:55:53;18.30;41.50
32753;DHT22;19121;52.428;10.816;2023-01-23T03:58:18;18.30;41.50
32753;DHT22;19121;52.428;10.816;2023-01-23T04:00:44;18.30;41.50
32753;DHT22;19121;52.428;10.816;2023-01-23T04:03:09;18.30;41.50
32753;DHT22;19121;52.428;10.816;2023-01-23T04:05:35;18.30;41.50
32753;DHT22;19121;52.428;10.816;2023-01-23T04:08:00;18.30;41.40
32753;DHT22;19121;52.428;10.816;2023-01-23T04:10:26;18.30;42.10
32753;DHT22;19121;52.428;10.816;2023-01-23T04:12:52;18.30;41.40
32753;DHT22;19121;52.428;10.816;2023-01-23T04:15:17;18.30;41.40
32753;DHT22;19121;52.428;10.816;2023-01-23T04:17:43;18.30;41.40
32753;DHT22;19121;52.428;10.816;2023-01-23T04:20:09;18.30;41.40
32753;DHT22;19121;52.428;10.816;2023-01-23T04:22:35;18.30;41.40
32753;DHT22;19121;52.428;10.816;2023-01-23T04:25:00;18.40;41.40
32753;DHT22;19121;52.428;10.816;2023-01-23T04:27:25;18.40;41.40
32753;DHT22;19121;52.428;10.816;2023-01-23T04:29:51;18.40;41.40
32753;DHT22;19121;52.428;10.816;2023-01-23T04:32:16;18.40;41.40
32753;DHT22;19121;52.428;10.816;2023-01-23T04:34:42;18.40;41.40
32753;DHT22;19121;52.428;10.816;2023-01-23T04:37:07;18.40;41.40
32753;DHT22;19121;52.428;10.816;2023-01-23T04:39:32;18.40;41.30
32753;DHT22;19121;52.428;10.816;2023-01-23T04:41:58;18.40;41.30
32753;DHT22;19121;52.428;10.816;2023-01-23T04:44:23;18.40;41.30
32753;DHT22;19121;52.428;10.816;2023-01-23T04:46:50;18.40;41.30
32753;DHT22;19121;52.428;10.816;2023-01-23T04:49:17;18.40;41.30
32753;DHT22;19121;52.428;10.816;2023-01-23T04:51:44;18.40;41.30
32753;DHT22;19121;52.428;10.816;2023-01-23T04:54:10;18.40;41.30
32753;DHT22;19121;52.428;10.816;2023-01-23T04:56:35;18.40;41.30
32753;DHT22;19121;52.428;10.816;2023-01-23T04:59:01;18.40;41.30
32753;DHT22;19121;52.428;10.816;2023-01-23T05:01:26;18.40;41.30
32753;DHT22;19121;52.428;10.816;2023-01-23T05:03:52;18.40;41.30
32753;DHT22;19121;52.428;10.816;2023-01-23T05:06:17;18.40;41.30
32753;DHT22;19121;52.428;10.816;2023-01-23T05:08:43;18.40;41.30
32753;DHT22;19121;52.428;10.816;2023-01-23T05:11:08;18.40;41.30
32753;DHT22;19121;52.428;10.816;2023-01-23T05:13:34;18.40;41.30
32753;DHT22;19121;52.428;10.816;2023-01-23T05:15:59;18.40;41.20
32753;DHT22;19121;52.428;10.816;2023-01-23T05:18:24;18.40;41.30
32753;DHT22;19121;52.428;10.816;2023-01-23T05:20:50;18.40;41.30
32753;DHT22;19121;52.428;10.816;2023-01-23T05:23:15;18.40;41.30
32753;DHT22;19121;52.428;10.816;2023-01-23T05:25:41;18.40;41.20
32753;DHT22;19121;52.428;10.816;2023-01-23T05:28:06;18.40;41.30
32753;DHT22;19121;52.428;10.816;2023-01-23T05:30:32;18.40;41.30
32753;DHT22;19121;52.428;10.816;2023-01-23T05:32:57;18.40;41.90
32753;DHT22;19121;52.428;10.816;2023-01-23T05:35:23;18.40;41.30
32753;DHT22;19121;52.428;10.816;2023-01-23T05:37:49;18.40;41.20
32753;DHT22;19121;52.428;10.816;2023-01-23T05:40:14;18.40;41.20
32753;DHT22;19121;52.428;10.816;2023-01-23T05:42:40;18.40;41.20
32753;DHT22;19121;52.428;10.816;2023-01-23T05:45:05;18.40;41.30
32753;DHT22;19121;52.428;10.816;2023-01-23T05:47:31;18.40;41.30
32753;DHT22;19121;52.428;10.816;2023-01-23T05:49:56;18.40;41.20
32753;DHT22;19121;52.428;10.816;2023-01-23T05:52:22;18.40;41.20
32753;DHT22;19121;52.428;10.816;2023-01-23T05:54:47;18.40;41.20
32753;DHT22;19121;52.428;10.816;2023-01-23T05:57:12;18.40;41.20
32753;DHT22;19121;52.428;10.816;2023-01-23T05:59:38;18.40;41.20
32753;DHT22;19121;52.428;10.816;2023-01-23T06:02:03;18.40;41.20
32753;DHT22;19121;52.428;10.816;2023-01-23T06:04:29;18.40;41.20
32753;DHT22;19121;52.428;10.816;2023-01-23T06:06:54;18.40;41.20
32753;DHT22;19121;52.428;10.816;2023-01-23T06:09:20;18.40;41.20
32753;DHT22;19121;52.428;10.816;2023-01-23T06:11:45;18.40;41.20
32753;DHT22;19121;52.428;10.816;2023-01-23T06:14:10;18.40;41.20
32753;DHT22;19121;52.428;10.816;2023-01-23T06:16:36;18.40;41.20
32753;DHT22;19121;52.428;10.816;2023-01-23T06:19:01;18.40;41.20
32753;DHT22;19121;52.428;10.816;2023-01-23T06:21:27;18.50;41.20
32753;DHT22;19121;52.428;10.816;2023-01-23T06:23:52;18.40;41.20
32753;DHT22;19121;52.428;10.816;2023-01-23T06:26:17;18.50;41.20
32753;DHT22;19121;52.428;10.816;2023-01-23T06:28:43;18.50;41.50
32753;DHT22;19121;52.428;10.816;2023-01-23T06:31:08;18.40;41.10
32753;DHT22;19121;52.428;10.816;2023-01-23T06:33:35;18.40;41.20
32753;DHT22;19121;52.428;10.816;2023-01-23T06:36:00;18.40;41.20
32753;DHT22;19121;52.428;10.816;2023-01-23T06:38:27;18.50;41.20
32753;DHT22;19121;52.428;10.816;2023-01-23T06:40:52;18.50;41.20
32753;DHT22;19121;52.428;10.816;2023-01-23T06:43:19;18.40;41.20
32753;DHT22;19121;52.428;10.816;2023-01-23T06:45:45;18.50;41.20
32753;DHT22;19121;52.428;10.816;2023-01-23T06:48:10;18.50;41.20
32753;DHT22;19121;52.428;10.816;2023-01-23T06:50:36;18.50;41.20
32753;DHT22;19121;52.428;10.816;2023-01-23T06:53:03;18.50;41.90
32753;DHT22;19121;52.428;10.816;2023-01-23T06:55:29;18.50;41.40
32753;DHT22;19121;52.428;10.816;2023-01-23T06:57:55;18.50;41.40
32753;DHT22;19121;52.428;10.816;2023-01-23T07:00:20;18.50;41.40
32753;DHT22;19121;52.428;10.816;2023-01-23T07:02:46;18.50;41.40
32753;DHT22;19121;52.428;10.816;2023-01-23T07:05:11;18.50;41.50
32753;DHT22;19121;52.428;10.816;2023-01-23T07:07:37;18.50;41.50
32753;DHT22;19121;52.428;10.816;2023-01-23T07:10:02;18.50;41.70
32753;DHT22;19121;52.428;10.816;2023-01-23T07:12:28;18.50;41.80
32753;DHT22;19121;52.428;10.816;2023-01-23T07:14:53;18.50;42.00
32753;DHT22;19121;52.428;10.816;2023-01-23T07:17:19;18.60;42.30
32753;DHT22;19121;52.428;10.816;2023-01-23T07:19:44;18.60;42.30
32753;DHT22;19121;52.428;10.816;2023-01-23T07:22:10;18.60;42.40
32753;DHT22;19121;52.428;10.816;2023-01-23T07:24:35;18.60;42.40
32753;DHT22;19121;52.428;10.816;2023-01-23T07:27:00;18.60;42.60
32753;DHT22;19121;52.428;10.816;2023-01-23T07:29:26;18.60;42.80
32753;DHT22;19121;52.428;10.816;2023-01-23T07:31:51;18.70;43.00
32753;DHT22;19121;52.428;10.816;2023-01-23T07:34:17;18.70;43.10
32753;DHT22;19121;52.428;10.816;2023-01-23T07:36:42;18.70;43.10
32753;DHT22;19121;52.428;10.816;2023-01-23T07:39:08;18.70;43.40
32753;DHT22;19121;52.428;10.816;2023-01-23T07:41:33;18.70;43.80
32753;DHT22;19121;52.428;10.816;2023-01-23T07:43:59;18.70;43.80
32753;DHT22;19121;52.428;10.816;2023-01-23T07:46:24;18.70;43.80
32753;DHT22;19121;52.428;10.816;2023-01-23T07:48:51;18.70;43.80
32753;DHT22;19121;52.428;10.816;2023-01-23T07:51:16;18.70;43.80
32753;DHT22;19121;52.428;10.816;2023-01-23T07:53:42;18.60;43.80
32753;DHT22;19121;52.428;10.816;2023-01-23T07:56:07;18.60;43.90
32753;DHT22;19121;52.428;10.816;2023-01-23T07:58:32;18.60;44.00
32753;DHT22;19121;52.428;10.816;2023-01-23T08:00:58;18.60;44.10
32753;DHT22;19121;52.428;10.816;2023-01-23T08:03:23;18.60;44.10
32753;DHT22;19121;52.428;10.816;2023-01-23T08:05:53;18.70;44.10
32753;DHT22;19121;52.428;10.816;2023-01-23T08:08:18;18.70;44.40
32753;DHT22;19121;52.428;10.816;2023-01-23T08:10:44;18.70;44.20
32753;DHT22;19121;52.428;10.816;2023-01-23T08:13:09;18.80;44.20
32753;DHT22;19121;52.428;10.816;2023-01-23T08:15:36;18.80;44.20
32753;DHT22;19121;52.428;10.816;2023-01-23T08:18:01;18.80;44.40
32753;DHT22;19121;52.428;10.816;2023-01-23T08:20:27;18.80;44.30
32753;DHT22;19121;52.428;10.816;2023-01-23T08:22:52;18.80;44.50
32753;DHT22;19121;52.428;10.816;2023-01-23T08:25:18;18.80;44.50
32753;DHT22;19121;52.428;10.816;2023-01-23T08:27:43;18.80;44.50
32753;DHT22;19121;52.428;10.816;2023-01-23T08:30:09;18.80;44.40
32753;DHT22;19121;52.428;10.816;2023-01-23T08:32:34;18.90;44.40
32753;DHT22;19121;52.428;10.816;2023-01-23T08:35:00;18.90;44.40
32753;DHT22;19121;52.428;10.816;2023-01-23T08:37:26;18.90;44.30
32753;DHT22;19121;52.428;10.816;2023-01-23T08:39:52;18.90;44.40
32753;DHT22;19121;52.428;10.816;2023-01-23T08:42:18;18.90;44.40
32753;DHT22;19121;52.428;10.816;2023-01-23T08:44:43;18.90;44.30
32753;DHT22;19121;52.428;10.816;2023-01-23T08:47:09;18.90;44.30
32753;DHT22;19121;52.428;10.816;2023-01-23T08:49:34;18.90;44.30
32753;DHT22;19121;52.428;10.816;2023-01-23T08:51:59;18.90;44.30
32753;DHT22;19121;52.428;10.816;2023-01-23T08:54:25;19.00;44.20
32753;DHT22;19121;52.428;10.816;2023-01-23T08:56:50;19.00;44.10
32753;DHT22;19121;52.428;10.816;2023-01-23T08:59:16;19.00;44.20
32753;DHT22;19121;52.428;10.816;2023-01-23T09:01:41;19.00;44.20
32753;DHT22;19121;52.428;10.816;2023-01-23T09:04:06;19.00;44.30
32753;DHT22;19121;52.428;10.816;2023-01-23T09:06:32;19.00;44.20
32753;DHT22;19121;52.428;10.816;2023-01-23T09:08:57;18.90;44.10
32753;DHT22;19121;52.428;10.816;2023-01-23T09:11:23;18.90;44.00
32753;DHT22;19121;52.428;10.816;2023-01-23T09:13:48;19.00;44.20
32753;DHT22;19121;52.428;10.816;2023-01-23T09:16:14;19.00;44.10
32753;DHT22;19121;52.428;10.816;2023-01-23T09:18:39;19.00;44.20
32753;DHT22;19121;52.428;10.816;2023-01-23T09:21:09;19.00;44.10
32753;DHT22;19121;52.428;10.816;2023-01-23T09:23:35;19.00;44.10
32753;DHT22;19121;52.428;10.816;2023-01-23T09:26:02;19.00;44.10
32753;DHT22;19121;52.428;10.816;2023-01-23T09:28:27;19.00;44.10
32753;DHT22;19121;52.428;10.816;2023-01-23T09:30:53;19.00;44.10
32753;DHT22;19121;52.428;10.816;2023-01-23T09:33:18;19.00;44.10
32753;DHT22;19121;52.428;10.816;2023-01-23T09:35:51;19.00;44.10
32753;DHT22;19121;52.428;10.816;2023-01-23T09:38:17;19.10;44.20
32753;DHT22;19121;52.428;10.816;2023-01-23T09:40:49;19.10;44.30
32753;DHT22;19121;52.428;10.816;2023-01-23T09:43:22;19.00;44.20
32753;DHT22;19121;52.428;10.816;2023-01-23T09:46:11;19.10;44.30
32753;DHT22;19121;52.428;10.816;2023-01-23T09:48:42;19.10;44.20
32753;DHT22;19121;52.428;10.816;2023-01-23T09:54:01;19.10;44.10
32753;DHT22;19121;52.428;10.816;2023-01-23T09:56:30;19.10;44.10
32753;DHT22;19121;52.428;10.816;2023-01-23T10:01:21;19.10;44.20
32753;DHT22;19121;52.428;10.816;2023-01-23T10:03:47;19.10;44.20
32753;DHT22;19121;52.428;10.816;2023-01-23T10:06:20;19.10;44.20
32753;DHT22;19121;52.428;10.816;2023-01-23T10:08:57;19.10;44.10
32753;DHT22;19121;52.428;10.816;2023-01-23T10:14:06;19.10;44.10
32753;DHT22;19121;52.428;10.816;2023-01-23T10:19:13;19.10;44.10
32753;DHT22;19121;52.428;10.816;2023-01-23T10:21:45;19.10;44.10
32753;DHT22;19121;52.428;10.816;2023-01-23T10:27:00;19.10;44.30
32753;DHT22;19121;52.428;10.816;2023-01-23T10:29:28;19.10;44.10
32753;DHT22;19121;52.428;10.816;2023-01-23T10:31:55;19.20;44.10
32753;DHT22;19121;52.428;10.816;2023-01-23T10:34:27;19.10;44.00
32753;DHT22;19121;52.428;10.816;2023-01-23T10:37:04;19.20;44.10
32753;DHT22;19121;52.428;10.816;2023-01-23T10:39:36;19.10;44.00
32753;DHT22;19121;52.428;10.816;2023-01-23T10:42:01;19.10;44.00
32753;DHT22;19121;52.428;10.816;2023-01-23T10:44:27;19.10;44.00
32753;DHT22;19121;52.428;10.816;2023-01-23T10:46:53;19.10;44.00
32753;DHT22;19121;52.428;10.816;2023-01-23T10:49:33;19.10;44.10
32753;DHT22;19121;52.428;10.816;2023-01-23T10:51:59;19.10;44.10
32753;DHT22;19121;52.428;10.816;2023-01-23T10:54:28;19.10;44.10
32753;DHT22;19121;52.428;10.816;2023-01-23T10:59:35;19.20;44.20
32753;DHT22;19121;52.428;10.816;2023-01-23T11:02:16;19.10;44.20
32753;DHT22;19121;52.428;10.816;2023-01-23T11:04:43;19.10;44.20
32753;DHT22;19121;52.428;10.816;2023-01-23T11:07:15;19.10;44.20
32753;DHT22;19121;52.428;10.816;2023-01-23T11:12:14;19.10;44.20
32753;DHT22;19121;52.428;10.816;2023-01-23T11:14:39;19.10;44.20
32753;DHT22;19121;52.428;10.816;2023-01-23T11:17:15;19.10;44.20
32753;DHT22;19121;52.428;10.816;2023-01-23T11:19:41;19.20;44.20
32753;DHT22;19121;52.428;10.816;2023-01-23T11:22:25;19.10;44.10
32753;DHT22;19121;52.428;10.816;2023-01-23T11:24:51;19.10;44.10
32753;DHT22;19121;52.428;10.816;2023-01-23T11:27:18;19.10;44.20
32753;DHT22;19121;52.428;10.816;2023-01-23T11:32:29;19.10;44.10
32753;DHT22;19121;52.428;10.816;2023-01-23T11:35:16;19.10;44.10
32753;DHT22;19121;52.428;10.816;2023-01-23T11:37:44;19.20;44.20
32753;DHT22;19121;52.428;10.816;2023-01-23T11:40:11;19.10;44.10
32753;DHT22;19121;52.428;10.816;2023-01-23T11:42:38;19.10;44.20
32753;DHT22;19121;52.428;10.816;2023-01-23T11:45:05;19.20;44.20
32753;DHT22;19121;52.428;10.816;2023-01-23T11:52:54;19.20;44.20
32753;DHT22;19121;52.428;10.816;2023-01-23T11:58:12;19.20;44.20
32753;DHT22;19121;52.428;10.816;2023-01-23T12:00:41;19.10;44.20
32753;DHT22;19121;52.428;10.816;2023-01-23T12:03:18;19.10;44.30
32753;DHT22;19121;52.428;10.816;2023-01-23T12:10:54;19.20;44.40
32753;DHT22;19121;52.428;10.816;2023-01-23T12:16:02;19.20;44.50
32753;DHT22;19121;52.428;10.816;2023-01-23T12:23:48;19.20;44.80
32753;DHT22;19121;52.428;10.816;2023-01-23T12:26:17;19.20;44.70
32753;DHT22;19121;52.428;10.816;2023-01-23T12:31:42;19.20;44.60
32753;DHT22;19121;52.428;10.816;2023-01-23T12:34:19;19.20;44.80
32753;DHT22;19121;52.428;10.816;2023-01-23T12:42:18;19.20;44.80
32753;DHT22;19121;52.428;10.816;2023-01-23T12:44:59;19.20;44.80
32753;DHT22;19121;52.428;10.816;2023-01-23T12:50:26;19.30;44.90
32753;DHT22;19121;52.428;10.816;2023-01-23T12:52:57;19.30;44.80
32753;DHT22;19121;52.428;10.816;2023-01-23T12:55:27;19.30;45.20
32753;DHT22;19121;52.428;10.816;2023-01-23T12:57:55;19.30;45.20
32753;DHT22;19121;52.428;10.816;2023-01-23T13:02:54;19.40;45.20
32753;DHT22;19121;52.428;10.816;2023-01-23T13:05:30;19.40;45.20
32753;DHT22;19121;52.428;10.816;2023-01-23T13:13:14;19.50;45.30
32753;DHT22;19121;52.428;10.816;2023-01-23T13:15:40;19.50;45.20
32753;DHT22;19121;52.428;10.816;2023-01-23T13:18:14;19.50;45.40
32753;DHT22;19121;52.428;10.816;2023-01-23T13:20:52;19.60;45.50
32753;DHT22;19121;52.428;10.816;2023-01-23T13:23:38;19.60;45.40
32753;DHT22;19121;52.428;10.816;2023-01-23T13:28:48;19.60;45.30
32753;DHT22;19121;52.428;10.816;2023-01-23T13:31:33;19.70;45.40
32753;DHT22;19121;52.428;10.816;2023-01-23T13:34:45;19.70;45.40
32753;DHT22;19121;52.428;10.816;2023-01-23T13:36:49;19.70;45.50
32753;DHT22;19121;52.428;10.816;2023-01-23T13:41:40;19.70;45.00
32753;DHT22;19121;52.428;10.816;2023-01-23T13:44:16;19.70;44.90
32753;DHT22;19121;52.428;10.816;2023-01-23T13:50:05;19.70;44.80
32753;DHT22;19121;52.428;10.816;2023-01-23T13:52:39;19.70;44.90
32753;DHT22;19121;52.428;10.816;2023-01-23T13:55:28;19.60;44.70
32753;DHT22;19121;52.428;10.816;2023-01-23T13:58:14;19.60;44.80
32753;DHT22;19121;52.428;10.816;2023-01-23T14:00:42;19.60;44.90
32753;DHT22;19121;52.428;10.816;2023-01-23T14:03:30;19.50;44.90
32753;DHT22;19121;52.428;10.816;2023-01-23T14:06:15;19.50;44.90
32753;DHT22;19121;52.428;10.816;2023-01-23T14:08:50;19.60;45.40
32753;DHT22;19121;52.428;10.816;2023-01-23T14:11:17;19.50;45.20
32753;DHT22;19121;52.428;10.816;2023-01-23T14:13:52;19.50;45.20
32753;DHT22;19121;52.428;10.816;2023-01-23T14:16:39;19.60;45.20
32753;DHT22;19121;52.428;10.816;2023-01-23T14:19:13;19.50;45.20
32753;DHT22;19121;52.428;10.816;2023-01-23T14:21:47;19.50;45.10
32753;DHT22;19121;52.428;10.816;2023-01-23T14:24:20;19.50;45.10
32753;DHT22;19121;52.428;10.816;2023-01-23T14:26:48;19.50;45.10
32753;DHT22;19121;52.428;10.816;2023-01-23T14:31:42;19.50;45.10
32753;DHT22;19121;52.428;10.816;2023-01-23T14:34:22;19.50;45.20
32753;DHT22;19121;52.428;10.816;2023-01-23T14:36:58;19.50;45.40
32753;DHT22;19121;52.428;10.816;2023-01-23T14:39:26;19.50;45.40
32753;DHT22;19121;52.428;10.816;2023-01-23T14:41:52;19.50;46.20
32753;DHT22;19121;52.428;10.816;2023-01-23T14:44:21;19.50;45.50
32753;DHT22;19121;52.428;10.816;2023-01-23T14:46:51;19.50;45.50
32753;DHT22;19121;52.428;10.816;2023-01-23T14:49:19;19.50;45.50
32753;DHT22;19121;52.428;10.816;2023-01-23T14:51:57;19.50;45.50
32753;DHT22;19121;52.428;10.816;2023-01-23T14:54:23;19.50;45.50
32753;DHT22;19121;52.428;10.816;2023-01-23T14:56:49;19.50;45.40
32753;DHT22;19121;52.428;10.816;2023-01-23T14:59:31;19.50;45.40
32753;DHT22;19121;52.428;10.816;2023-01-23T15:01:59;19.50;45.40
32753;DHT22;19121;52.428;10.816;2023-01-23T15:04:25;19.50;45.40
32753;DHT22;19121;52.428;10.816;2023-01-23T15:06:53;19.50;45.40
32753;DHT22;19121;52.428;10.816;2023-01-23T15:09:21;19.50;45.40
32753;DHT22;19121;52.428;10.816;2023-01-23T15:11:49;19.50;45.40
32753;DHT22;19121;52.428;10.816;2023-01-23T15:14:25;19.50;45.40
32753;DHT22;19121;52.428;10.816;2023-01-23T15:16:59;19.50;45.40
32753;DHT22;19121;52.428;10.816;2023-01-23T15:19:25;19.50;45.40
32753;DHT22;19121;52.428;10.816;2023-01-23T15:22:00;19.50;45.40
32753;DHT22;19121;52.428;10.816;2023-01-23T15:24:28;19.50;45.40
32753;DHT22;19121;52.428;10.816;2023-01-23T15:27:01;19.50;45.30
32753;DHT22;19121;52.428;10.816;2023-01-23T15:29:30;19.50;45.30
32753;DHT22;19121;52.428;10.816;2023-01-23T15:31:57;19.50;45.40
32753;DHT22;19121;52.428;10.816;2023-01-23T15:34:26;19.50;45.50
32753;DHT22;19121;52.428;10.816;2023-01-23T15:39:47;19.50;45.60
32753;DHT22;19121;52.428;10.816;2023-01-23T15:44:39;19.50;45.50
32753;DHT22;19121;52.428;10.816;2023-01-23T15:47:04;19.50;45.50
32753;DHT22;19121;52.428;10.816;2023-01-23T15:49:31;19.60;45.50
32753;DHT22;19121;52.428;10.816;2023-01-23T15:51:57;19.60;45.50
32753;DHT22;19121;52.428;10.816;2023-01-23T15:54:41;19.60;45.50
32753;DHT22;19121;52.428;10.816;2023-01-23T15:57:07;19.50;45.90
32753;DHT22;19121;52.428;10.816;2023-01-23T15:59:34;19.60;45.80
32753;DHT22;19121;52.428;10.816;2023-01-23T16:02:00;19.60;46.00
32753;DHT22;19121;52.428;10.816;2023-01-23T16:04:25;19.50;45.80
32753;DHT22;19121;52.428;10.816;2023-01-23T16:06:50;19.60;45.80
32753;DHT22;19121;52.428;10.816;2023-01-23T16:09:25;19.60;46.00
32753;DHT22;19121;52.428;10.816;2023-01-23T16:11:52;19.60;45.80
32753;DHT22;19121;52.428;10.816;2023-01-23T16:14:17;19.50;45.70
32753;DHT22;19121;52.428;10.816;2023-01-23T16:16:43;19.50;45.60
32753;DHT22;19121;52.428;10.816;2023-01-23T16:19:09;19.50;45.50
32753;DHT22;19121;52.428;10.816;2023-01-23T16:21:34;19.50;45.40
32753;DHT22;19121;52.428;10.816;2023-01-23T16:24:00;19.50;45.40
32753;DHT22;19121;52.428;10.816;2023-01-23T16:26:26;19.50;45.40
32753;DHT22;19121;52.428;10.816;2023-01-23T16:28:51;19.50;45.40
32753;DHT22;19121;52.428;10.816;2023-01-23T16:31:17;19.50;45.30
32753;DHT22;19121;52.428;10.816;2023-01-23T16:33:42;19.50;45.30
32753;DHT22;19121;52.428;10.816;2023-01-23T16:36:10;19.50;45.30
32753;DHT22;19121;52.428;10.816;2023-01-23T16:38:37;19.50;45.30